createdAt,value
2018-03-03T00:00:00.504Z,-2.20
2018-03-03T00:02:28.047Z,-2.20
2018-03-03T00:04:55.560Z,-2.20
2018-03-03T00:07:23.093Z,-2.20
2018-03-03T00:09:50.609Z,-2.10
2018-03-03T00:12:18.123Z,-2.10
2018-03-03T00:14:45.655Z,-2.10
2018-03-03T00:17:13.159Z,-2.00
2018-03-03T00:19:41.237Z,-2.20
2018-03-03T00:22:09.151Z,-2.20
2018-03-03T00:24:36.792Z,-2.20
2018-03-03T00:27:04.351Z,-2.20
2018-03-03T00:29:31.892Z,-2.10
2018-03-03T00:31:59.407Z,-2.10
2018-03-03T00:34:26.957Z,-2.20
2018-03-03T00:36:54.591Z,-2.20
2018-03-03T00:39:22.126Z,-2.20
2018-03-03T00:41:49.636Z,-2.20
2018-03-03T00:44:17.192Z,-2.20
2018-03-03T00:46:44.699Z,-2.20
2018-03-03T00:49:12.240Z,-2.20
2018-03-03T00:51:40.151Z,-2.20
2018-03-03T00:54:07.781Z,-2.20
2018-03-03T00:56:35.356Z,-2.20
2018-03-03T00:59:02.930Z,-2.20
2018-03-03T01:01:30.470Z,-2.20
2018-03-03T01:03:57.979Z,-2.20
2018-03-03T01:06:25.588Z,-2.30
2018-03-03T01:08:53.094Z,-2.20
2018-03-03T01:11:20.634Z,-2.20
2018-03-03T01:13:48.143Z,-2.20
2018-03-03T01:16:16.083Z,-2.10
2018-03-03T01:18:43.588Z,-2.10
2018-03-03T01:21:11.129Z,-2.10
2018-03-03T01:23:38.637Z,-2.00
2018-03-03T01:26:06.161Z,-1.90
2018-03-03T01:28:33.675Z,-1.90
2018-03-03T01:31:01.283Z,-1.80
2018-03-03T01:33:28.799Z,-1.90
2018-03-03T01:35:56.732Z,-1.80
2018-03-03T01:38:24.263Z,-1.80
2018-03-03T01:40:51.813Z,-1.80
2018-03-03T01:43:19.323Z,-1.80
2018-03-03T01:45:46.832Z,-1.70
2018-03-03T01:48:14.365Z,-1.70
2018-03-03T01:50:42.300Z,-1.70
2018-03-03T01:53:09.836Z,-1.70
2018-03-03T01:55:37.351Z,-1.70
2018-03-03T01:58:05.291Z,-1.70
2018-03-03T02:00:32.806Z,-1.70
2018-03-03T02:03:00.339Z,-1.80
2018-03-03T02:05:27.926Z,-1.80
2018-03-03T02:07:55.559Z,-1.90
2018-03-03T02:10:23.080Z,-1.90
2018-03-03T02:12:50.614Z,-2.00
2018-03-03T02:15:18.142Z,-2.00
2018-03-03T02:17:45.692Z,-2.00
2018-03-03T02:20:13.215Z,-2.00
2018-03-03T02:22:40.735Z,-2.00
2018-03-03T02:25:08.273Z,-2.00
2018-03-03T02:27:35.866Z,-2.10
2018-03-03T02:30:03.412Z,-2.20
2018-03-03T02:32:30.923Z,-2.10
2018-03-03T02:34:58.860Z,-2.20
2018-03-03T02:37:26.406Z,-2.20
2018-03-03T02:39:54.036Z,-2.30
2018-03-03T02:42:21.600Z,-2.30
2018-03-03T02:44:49.140Z,-2.40
2018-03-03T02:47:16.657Z,-2.40
2018-03-03T02:49:44.207Z,-2.50
2018-03-03T02:52:11.868Z,-2.50
2018-03-03T02:54:39.508Z,-2.50
2018-03-03T02:57:07.038Z,-2.60
2018-03-03T02:59:34.563Z,-2.60
2018-03-03T03:02:02.119Z,-2.60
2018-03-03T03:04:29.635Z,-2.70
2018-03-03T03:06:57.167Z,-2.70
2018-03-03T03:09:25.089Z,-2.70
2018-03-03T03:11:52.630Z,-2.70
2018-03-03T03:14:20.143Z,-2.70
2018-03-03T03:16:48.082Z,-2.80
2018-03-03T03:19:15.599Z,-2.80
2018-03-03T03:21:43.149Z,-2.90
2018-03-03T03:24:10.668Z,-2.90
2018-03-03T03:26:38.187Z,-2.90
2018-03-03T03:29:05.719Z,-2.90
2018-03-03T03:31:33.241Z,-3.00
2018-03-03T03:34:00.775Z,-3.00
2018-03-03T03:36:28.288Z,-3.10
2018-03-03T03:38:55.832Z,-3.10
2018-03-03T03:41:23.828Z,-3.10
2018-03-03T03:43:51.362Z,-3.10
2018-03-03T03:46:19.283Z,-3.20
2018-03-03T03:48:46.815Z,-3.20
2018-03-03T03:51:14.327Z,-3.20
2018-03-03T03:53:42.267Z,-3.20
2018-03-03T03:56:09.908Z,-3.20
2018-03-03T03:58:37.454Z,-3.30
2018-03-03T04:01:05.012Z,-3.30
2018-03-03T04:03:32.541Z,-3.30
2018-03-03T04:06:00.488Z,-3.30
2018-03-03T04:08:28.103Z,-3.30
2018-03-03T04:10:55.654Z,-3.40
2018-03-03T04:13:23.191Z,-3.40
2018-03-03T04:15:51.128Z,-3.40
2018-03-03T04:18:18.736Z,-3.40
2018-03-03T04:20:46.508Z,-3.50
2018-03-03T04:23:14.023Z,-3.50
2018-03-03T04:25:41.950Z,-3.60
2018-03-03T04:28:09.474Z,-3.60
2018-03-03T04:30:37.000Z,-3.60
2018-03-03T04:33:04.519Z,-3.70
2018-03-03T04:35:32.064Z,-3.70
2018-03-03T04:37:59.570Z,-3.80
2018-03-03T04:40:27.179Z,-3.90
2018-03-03T04:42:54.736Z,-3.90
2018-03-03T04:45:22.270Z,-3.80
2018-03-03T04:47:50.203Z,-3.80
2018-03-03T04:50:19.642Z,-3.80
2018-03-03T04:52:47.751Z,-3.90
2018-03-03T04:55:15.267Z,-3.90
2018-03-03T04:57:43.200Z,-3.80
2018-03-03T05:00:12.578Z,-3.90
2018-03-03T05:05:53.123Z,-3.80
2018-03-03T05:08:21.070Z,-3.80
2018-03-03T05:10:49.871Z,-3.80
2018-03-03T05:13:23.551Z,-3.80
2018-03-03T05:16:03.807Z,-3.80
2018-03-03T05:18:37.011Z,-3.80
2018-03-03T05:21:10.564Z,-3.90
2018-03-03T05:23:57.791Z,-3.80
2018-03-03T05:26:40.202Z,-3.80
2018-03-03T05:29:13.523Z,-3.90
2018-03-03T05:31:46.584Z,-3.90
2018-03-03T05:34:19.975Z,-3.90
2018-03-03T05:36:53.335Z,-3.90
2018-03-03T05:39:26.399Z,-3.90
2018-03-03T05:41:59.867Z,-4.00
2018-03-03T05:44:33.103Z,-4.00
2018-03-03T05:47:18.492Z,-4.00
2018-03-03T05:49:56.751Z,-4.00
2018-03-03T05:52:31.935Z,-4.00
2018-03-03T05:55:05.238Z,-4.00
2018-03-03T05:57:50.438Z,-4.10
2018-03-03T06:00:20.456Z,-4.10
2018-03-03T06:03:05.804Z,-4.10
2018-03-03T06:05:38.966Z,-4.00
2018-03-03T06:08:12.459Z,-4.00
2018-03-03T06:10:54.998Z,-4.00
2018-03-03T06:13:22.599Z,-3.90
2018-03-03T06:15:50.271Z,-3.80
2018-03-03T06:18:17.779Z,-3.80
2018-03-03T06:20:45.295Z,-3.70
2018-03-03T06:23:13.236Z,-3.60
2018-03-03T06:25:40.748Z,-3.50
2018-03-03T06:28:08.283Z,-3.50
2018-03-03T06:30:36.275Z,-3.40
2018-03-03T06:33:03.803Z,-3.40
2018-03-03T06:35:31.726Z,-3.40
2018-03-03T06:37:59.256Z,-3.40
2018-03-03T06:40:26.770Z,-3.30
2018-03-03T06:42:54.311Z,-3.20
2018-03-03T06:45:21.827Z,-3.10
2018-03-03T06:47:49.398Z,-2.70
2018-03-03T06:50:16.923Z,-2.20
2018-03-03T06:52:44.847Z,-1.30
2018-03-03T06:55:12.357Z,-1.30
2018-03-03T06:57:39.967Z,-0.80
2018-03-03T07:00:07.471Z,-0.40
2018-03-03T07:02:35.470Z,0.00
2018-03-03T07:05:03.000Z,0.00
2018-03-03T07:07:30.935Z,0.00
2018-03-03T07:09:58.560Z,0.00
2018-03-03T07:12:26.068Z,0.20
2018-03-03T07:15:03.917Z,1.00
2018-03-03T07:17:31.532Z,1.00
2018-03-03T07:19:59.447Z,1.20
2018-03-03T07:22:27.017Z,1.30
2018-03-03T07:24:54.520Z,1.10
2018-03-03T07:27:22.439Z,0.90
2018-03-03T07:29:49.984Z,0.90
2018-03-03T07:32:17.486Z,1.10
2018-03-03T07:34:45.032Z,1.20
2018-03-03T07:37:12.536Z,1.50
2018-03-03T07:39:40.467Z,1.60
2018-03-03T07:42:07.982Z,1.60
2018-03-03T07:44:35.512Z,2.00
2018-03-03T07:47:03.423Z,1.50
2018-03-03T07:49:30.978Z,1.00
2018-03-03T07:51:58.502Z,1.00
2018-03-03T07:54:26.075Z,0.60
2018-03-03T07:57:05.459Z,0.40
2018-03-03T07:59:33.180Z,0.20
2018-03-03T08:02:00.722Z,0.20
2018-03-03T08:04:28.259Z,0.10
2018-03-03T08:06:56.195Z,0.30
2018-03-03T08:09:23.718Z,0.30
2018-03-03T08:11:51.243Z,0.50
2018-03-03T08:14:19.156Z,0.70
2018-03-03T08:16:46.755Z,0.70
2018-03-03T08:19:14.318Z,1.00
2018-03-03T08:21:41.848Z,1.00
2018-03-03T08:24:09.367Z,1.10
2018-03-03T08:26:37.246Z,1.60
2018-03-03T08:29:04.900Z,1.60
2018-03-03T08:31:32.435Z,1.70
2018-03-03T08:34:00.340Z,1.90
2018-03-03T08:36:28.932Z,1.80
2018-03-03T08:38:56.443Z,1.80
2018-03-03T08:41:24.375Z,1.70
2018-03-03T08:43:52.007Z,1.70
2018-03-03T08:46:19.574Z,1.80
2018-03-03T08:48:47.103Z,1.80
2018-03-03T08:51:14.647Z,1.80
2018-03-03T08:53:42.567Z,1.60
2018-03-03T08:56:10.085Z,1.70
2018-03-03T08:58:37.621Z,1.60
2018-03-03T09:01:05.571Z,1.90
2018-03-03T09:03:33.117Z,2.20
2018-03-03T09:06:00.623Z,2.20
2018-03-03T09:08:28.159Z,2.30
2018-03-03T09:10:56.061Z,2.30
2018-03-03T09:13:23.611Z,2.30
2018-03-03T09:15:51.224Z,2.20
2018-03-03T09:18:19.175Z,1.90
2018-03-03T09:20:46.698Z,1.90
2018-03-03T09:23:14.265Z,1.90
2018-03-03T09:25:41.785Z,2.00
2018-03-03T09:28:09.717Z,2.20
2018-03-03T09:30:37.711Z,2.30
2018-03-03T09:33:05.417Z,2.30
2018-03-03T09:35:32.932Z,2.50
2018-03-03T09:38:00.499Z,2.70
2018-03-03T09:40:28.422Z,3.00
2018-03-03T09:42:55.935Z,2.90
2018-03-03T09:45:23.868Z,3.40
2018-03-03T09:47:51.407Z,3.40
2018-03-03T09:50:20.219Z,3.50
2018-03-03T09:52:48.042Z,3.50
2018-03-03T09:55:15.601Z,3.60
2018-03-03T09:57:43.183Z,3.50
2018-03-03T10:00:10.725Z,3.30
2018-03-03T10:02:38.232Z,3.30
2018-03-03T10:05:06.185Z,3.20
2018-03-03T10:07:33.746Z,3.20
2018-03-03T10:10:01.277Z,3.20
2018-03-03T10:12:28.819Z,3.30
2018-03-03T10:14:56.355Z,3.30
2018-03-03T10:17:23.882Z,3.30
2018-03-03T10:19:51.420Z,3.40
2018-03-03T10:22:18.936Z,3.50
2018-03-03T10:24:46.479Z,3.50
2018-03-03T10:27:14.418Z,3.70
2018-03-03T10:29:41.953Z,3.70
2018-03-03T10:32:12.287Z,3.70
2018-03-03T10:34:39.935Z,3.70
2018-03-03T10:37:08.216Z,3.80
2018-03-03T10:39:35.732Z,3.90
2018-03-03T10:42:03.411Z,3.80
2018-03-03T10:44:30.991Z,3.80
2018-03-03T10:46:58.551Z,3.80
2018-03-03T10:49:26.068Z,3.80
2018-03-03T10:51:53.625Z,3.80
2018-03-03T10:54:21.152Z,3.70
2018-03-03T10:56:48.788Z,3.80
2018-03-03T10:59:16.300Z,4.00
2018-03-03T11:01:44.236Z,4.40
2018-03-03T11:04:11.758Z,4.40
2018-03-03T11:06:39.281Z,4.40
2018-03-03T11:09:07.230Z,4.00
2018-03-03T11:11:35.133Z,4.10
2018-03-03T11:14:02.676Z,4.10
2018-03-03T11:16:30.587Z,4.20
2018-03-03T11:18:58.116Z,4.20
2018-03-03T11:21:25.632Z,4.10
2018-03-03T11:23:53.256Z,4.00
2018-03-03T11:26:20.767Z,4.00
2018-03-03T11:28:48.695Z,3.60
2018-03-03T11:31:16.643Z,3.70
2018-03-03T11:33:44.197Z,3.60
2018-03-03T11:36:11.711Z,3.60
2018-03-03T11:38:39.661Z,3.60
2018-03-03T11:41:07.284Z,3.60
2018-03-03T11:43:34.944Z,3.50
2018-03-03T11:46:02.455Z,3.40
2018-03-03T11:48:30.413Z,3.50
2018-03-03T11:50:58.335Z,3.60
2018-03-03T11:53:25.869Z,3.60
2018-03-03T11:55:53.407Z,3.60
2018-03-03T11:58:21.336Z,3.80
2018-03-03T12:00:48.908Z,3.80
2018-03-03T12:03:16.451Z,3.80
2018-03-03T12:05:43.974Z,3.90
2018-03-03T12:08:11.520Z,3.80
2018-03-03T12:10:39.483Z,3.80
2018-03-03T12:13:07.406Z,3.70
2018-03-03T12:15:35.025Z,3.70
2018-03-03T12:18:02.683Z,3.80
2018-03-03T12:20:30.199Z,3.90
2018-03-03T12:22:57.739Z,4.00
2018-03-03T12:25:25.242Z,4.00
2018-03-03T12:27:53.204Z,4.00
2018-03-03T12:30:21.106Z,3.90
2018-03-03T12:32:48.863Z,3.90
2018-03-03T12:35:16.395Z,3.90
2018-03-03T12:37:44.401Z,3.90
2018-03-03T12:40:11.923Z,3.90
2018-03-03T12:42:39.866Z,4.00
2018-03-03T12:45:07.379Z,4.00
2018-03-03T12:47:34.978Z,4.10
2018-03-03T12:50:02.452Z,4.20
2018-03-03T12:52:29.984Z,4.40
2018-03-03T12:54:57.504Z,4.40
2018-03-03T12:57:25.016Z,4.50
2018-03-03T12:59:52.540Z,4.50
2018-03-03T13:02:20.050Z,4.50
2018-03-03T13:04:47.992Z,4.40
2018-03-03T13:07:15.524Z,4.40
2018-03-03T13:09:43.068Z,4.40
2018-03-03T13:12:10.575Z,4.40
2018-03-03T13:14:38.099Z,4.40
2018-03-03T13:17:05.659Z,4.40
2018-03-03T13:19:33.202Z,4.40
2018-03-03T13:22:00.716Z,4.40
2018-03-03T13:24:28.327Z,4.40
2018-03-03T13:26:55.842Z,4.40
2018-03-03T13:29:23.383Z,4.40
2018-03-03T13:31:50.899Z,4.50
2018-03-03T13:34:18.433Z,4.40
2018-03-03T13:36:46.430Z,4.40
2018-03-03T13:39:13.959Z,4.40
2018-03-03T13:41:41.867Z,4.30
2018-03-03T13:44:09.403Z,4.30
2018-03-03T13:46:36.908Z,4.20
2018-03-03T13:49:04.446Z,4.20
2018-03-03T13:51:31.963Z,4.20
2018-03-03T13:53:59.504Z,4.10
2018-03-03T13:56:27.419Z,4.00
2018-03-03T13:58:54.965Z,4.00
2018-03-03T14:01:22.480Z,3.90
2018-03-03T14:03:50.429Z,3.80
2018-03-03T14:06:17.952Z,3.80
2018-03-03T14:08:45.511Z,3.80
2018-03-03T14:11:13.027Z,3.70
2018-03-03T14:13:40.952Z,3.80
2018-03-03T14:16:08.458Z,3.80
2018-03-03T14:18:36.419Z,3.70
2018-03-03T14:21:04.339Z,3.70
2018-03-03T14:23:31.865Z,3.70
2018-03-03T14:25:59.388Z,3.80
2018-03-03T14:28:27.004Z,3.90
2018-03-03T14:30:54.537Z,3.90
2018-03-03T14:33:22.060Z,4.00
2018-03-03T14:35:49.607Z,4.10
2018-03-03T14:38:17.208Z,4.10
2018-03-03T14:40:44.748Z,4.10
2018-03-03T14:43:12.268Z,4.10
2018-03-03T14:45:39.806Z,4.00
2018-03-03T14:48:07.323Z,4.10
2018-03-03T14:50:35.255Z,4.00
2018-03-03T14:53:02.771Z,4.00
2018-03-03T14:55:30.341Z,3.90
2018-03-03T14:57:57.956Z,3.90
2018-03-03T15:00:25.530Z,3.70
2018-03-03T15:02:53.434Z,3.70
2018-03-03T15:05:20.959Z,3.70
2018-03-03T15:07:48.891Z,3.60
2018-03-03T15:10:16.519Z,3.60
2018-03-03T15:12:44.088Z,3.50
2018-03-03T15:15:11.602Z,3.50
2018-03-03T15:17:39.567Z,3.50
2018-03-03T15:20:07.475Z,3.40
2018-03-03T15:22:35.009Z,3.40
2018-03-03T15:25:02.532Z,3.30
2018-03-03T15:27:30.063Z,3.30
2018-03-03T15:29:57.575Z,3.30
2018-03-03T15:32:25.516Z,3.30
2018-03-03T15:34:53.050Z,3.30
2018-03-03T15:37:20.604Z,3.30
2018-03-03T15:39:48.116Z,3.20
2018-03-03T15:42:16.053Z,3.20
2018-03-03T15:44:43.580Z,3.20
2018-03-03T15:47:11.107Z,3.10
2018-03-03T15:49:38.712Z,3.00
2018-03-03T15:52:06.267Z,3.00
2018-03-03T15:54:33.825Z,3.00
2018-03-03T15:57:01.345Z,3.10
2018-03-03T15:59:28.878Z,2.90
2018-03-03T16:01:56.799Z,2.80
2018-03-03T16:04:24.358Z,2.90
2018-03-03T16:06:51.914Z,2.90
2018-03-03T16:09:19.449Z,2.80
2018-03-03T16:11:46.973Z,2.80
2018-03-03T16:14:14.922Z,2.70
2018-03-03T16:16:42.628Z,2.70
2018-03-03T16:19:10.188Z,2.70
2018-03-03T16:21:37.736Z,2.70
2018-03-03T16:24:05.662Z,2.60
2018-03-03T16:26:33.195Z,2.60
2018-03-03T16:29:00.722Z,2.50
2018-03-03T16:31:28.619Z,2.40
2018-03-03T16:33:56.176Z,2.40
2018-03-03T16:36:23.707Z,2.40
2018-03-03T16:38:51.643Z,2.30
2018-03-03T16:41:19.167Z,2.30
2018-03-03T16:43:46.703Z,2.30
2018-03-03T16:46:14.290Z,2.30
2018-03-03T16:48:41.819Z,2.30
2018-03-03T16:51:09.386Z,2.40
2018-03-03T16:53:36.901Z,2.30
2018-03-03T16:56:04.868Z,2.20
2018-03-03T16:58:32.787Z,2.10
2018-03-03T17:01:00.333Z,2.10
2018-03-03T17:03:27.989Z,2.10
2018-03-03T17:05:55.551Z,2.00
2018-03-03T17:08:23.080Z,2.10
2018-03-03T17:10:51.013Z,2.10
2018-03-03T17:13:18.535Z,2.10
2018-03-03T17:15:46.073Z,2.20
2018-03-03T17:18:13.993Z,2.20
2018-03-03T17:20:42.232Z,2.20
2018-03-03T17:23:09.852Z,2.20
2018-03-03T17:25:37.404Z,2.20
2018-03-03T17:28:04.921Z,2.10
2018-03-03T17:30:32.459Z,2.10
2018-03-03T17:32:59.968Z,2.00
2018-03-03T17:35:27.608Z,2.00
2018-03-03T17:37:55.134Z,2.00
2018-03-03T17:40:22.687Z,2.00
2018-03-03T17:42:50.602Z,2.20
2018-03-03T17:45:18.148Z,2.20
2018-03-03T17:47:45.658Z,2.20
2018-03-03T17:50:13.675Z,2.30
2018-03-03T17:52:41.199Z,2.30
2018-03-03T17:55:09.107Z,2.30
2018-03-03T17:57:36.627Z,2.40
2018-03-03T18:00:04.551Z,2.40
2018-03-03T18:02:32.092Z,2.40
2018-03-03T18:04:59.603Z,2.40
2018-03-03T18:07:27.527Z,2.40
2018-03-03T18:09:55.135Z,2.40
2018-03-03T18:12:23.074Z,2.40
2018-03-03T18:14:50.727Z,2.40
2018-03-03T18:17:18.273Z,2.40
2018-03-03T18:19:45.790Z,2.40
2018-03-03T18:22:13.319Z,2.40
2018-03-03T18:24:41.432Z,2.40
2018-03-03T18:27:09.072Z,2.40
2018-03-03T18:29:36.985Z,2.30
2018-03-03T18:32:04.547Z,2.30
2018-03-03T18:34:32.137Z,2.30
2018-03-03T18:37:00.080Z,2.30
2018-03-03T18:39:27.705Z,2.30
2018-03-03T18:41:55.238Z,2.30
2018-03-03T18:44:23.145Z,2.20
2018-03-03T18:46:50.664Z,2.20
2018-03-03T18:49:18.592Z,2.20
2018-03-03T18:51:46.109Z,2.20
2018-03-03T18:54:13.643Z,2.30
2018-03-03T18:56:41.552Z,2.20
2018-03-03T18:59:09.198Z,2.20
2018-03-03T19:01:36.703Z,2.00
2018-03-03T19:04:04.231Z,1.80
2018-03-03T19:06:31.754Z,1.70
2018-03-03T19:08:59.690Z,1.80
2018-03-03T19:11:27.227Z,1.80
2018-03-03T19:13:54.771Z,1.70
2018-03-03T19:16:22.292Z,1.60
2018-03-03T19:18:50.649Z,1.60
2018-03-03T19:21:18.788Z,1.60
2018-03-03T19:23:46.332Z,1.60
2018-03-03T19:26:13.870Z,1.70
2018-03-03T19:28:41.460Z,1.80
2018-03-03T19:31:09.019Z,1.80
2018-03-03T19:33:36.991Z,1.90
2018-03-03T19:36:04.511Z,1.90
2018-03-03T19:38:32.052Z,1.80
2018-03-03T19:40:59.967Z,1.80
2018-03-03T19:43:27.496Z,1.80
2018-03-03T19:45:55.004Z,1.80
2018-03-03T19:48:22.550Z,1.90
2018-03-03T19:50:50.076Z,1.80
2018-03-03T19:53:17.636Z,1.80
2018-03-03T19:55:45.224Z,1.90
2018-03-03T19:58:12.755Z,1.90
2018-03-03T20:00:40.259Z,1.80
2018-03-03T20:03:07.800Z,1.70
2018-03-03T20:05:35.318Z,1.70
2018-03-03T20:08:02.852Z,1.70
2018-03-03T20:10:30.784Z,1.70
2018-03-03T20:12:58.528Z,1.70
2018-03-03T20:15:26.181Z,1.70
2018-03-03T20:17:53.720Z,1.70
2018-03-03T20:20:21.237Z,1.70
2018-03-03T20:22:48.763Z,1.60
2018-03-03T20:25:16.288Z,1.60
2018-03-03T20:27:44.196Z,1.70
2018-03-03T20:30:11.727Z,1.70
2018-03-03T20:32:39.236Z,1.70
2018-03-03T20:35:06.768Z,1.70
2018-03-03T20:37:34.277Z,1.70
2018-03-03T20:40:02.195Z,1.70
2018-03-03T20:42:29.736Z,1.70
2018-03-03T20:44:57.305Z,1.70
2018-03-03T20:47:24.864Z,1.70
2018-03-03T20:49:52.409Z,1.70
2018-03-03T20:52:19.928Z,1.60
2018-03-03T20:54:47.937Z,1.60
2018-03-03T20:57:15.599Z,1.60
2018-03-03T20:59:43.260Z,1.60
2018-03-03T21:02:10.857Z,1.60
2018-03-03T21:04:38.388Z,1.50
2018-03-03T21:07:05.907Z,1.60
2018-03-03T21:09:33.835Z,1.70
2018-03-03T21:12:04.079Z,1.70
2018-03-03T21:14:31.627Z,1.70
2018-03-03T21:16:59.147Z,1.80
2018-03-03T21:19:26.712Z,1.80
2018-03-03T21:21:54.223Z,1.80
2018-03-03T21:24:22.141Z,1.80
2018-03-03T21:26:49.663Z,1.80
2018-03-03T21:29:17.188Z,1.80
2018-03-03T21:31:44.704Z,1.90
2018-03-03T21:34:12.236Z,1.90
2018-03-03T21:36:39.763Z,1.90
2018-03-03T21:39:07.293Z,1.90
2018-03-03T21:41:34.802Z,2.00
2018-03-03T21:44:02.733Z,2.00
2018-03-03T21:46:30.255Z,2.00
2018-03-03T21:48:57.783Z,2.00
2018-03-03T21:51:25.713Z,2.00
2018-03-03T21:53:53.327Z,2.00
2018-03-03T21:56:20.856Z,1.90
2018-03-03T21:58:48.768Z,1.60
2018-03-03T22:01:16.290Z,1.60
2018-03-03T22:03:44.292Z,1.60
2018-03-03T22:06:11.849Z,1.60
2018-03-03T22:08:39.382Z,1.50
2018-03-03T22:11:07.311Z,1.40
2018-03-03T22:13:34.834Z,1.40
2018-03-03T22:16:02.361Z,1.30
2018-03-03T22:18:30.287Z,1.20
2018-03-03T22:20:57.813Z,1.10
2018-03-03T22:23:25.339Z,1.10
2018-03-03T22:25:53.259Z,1.10
2018-03-03T22:28:20.822Z,1.10
2018-03-03T22:30:48.404Z,1.10
2018-03-03T22:33:15.917Z,1.10
2018-03-03T22:35:43.430Z,1.10
2018-03-03T22:38:11.368Z,1.20
2018-03-03T22:40:38.910Z,1.20
2018-03-03T22:43:06.446Z,1.10
2018-03-03T22:45:33.967Z,1.10
2018-03-03T22:48:01.516Z,1.00
2018-03-03T22:50:29.052Z,1.00
2018-03-03T22:52:56.567Z,1.00
2018-03-03T22:55:24.101Z,1.00
2018-03-03T22:57:51.609Z,1.00
2018-03-03T23:00:19.144Z,0.90
2018-03-03T23:02:46.734Z,0.90
2018-03-03T23:05:14.404Z,0.90
2018-03-03T23:07:41.907Z,0.90
2018-03-03T23:10:09.843Z,1.00
2018-03-03T23:12:37.348Z,1.00
2018-03-03T23:15:04.887Z,1.00
2018-03-03T23:17:32.800Z,1.00
2018-03-03T23:20:00.368Z,1.00
2018-03-03T23:22:27.888Z,0.90
2018-03-03T23:24:55.419Z,0.90
2018-03-03T23:27:23.338Z,1.00
2018-03-03T23:29:50.858Z,1.00
2018-03-03T23:32:18.759Z,1.00
2018-03-03T23:34:46.284Z,1.00
2018-03-03T23:37:14.204Z,1.00
2018-03-03T23:39:41.738Z,1.00
2018-03-03T23:42:09.243Z,1.00
2018-03-03T23:44:36.786Z,1.00
2018-03-03T23:47:04.331Z,1.00
2018-03-03T23:49:31.851Z,1.00
2018-03-03T23:51:59.375Z,1.00
2018-03-03T23:54:27.030Z,1.00
2018-03-03T23:56:54.560Z,1.10
2018-03-03T23:59:22.077Z,1.20
